sensor_id;sensor_type;location;lat;lon;timestamp;temperature;humidity
9375;DHT22;4727;51.202;6.344;2022-10-31T04:30:50;13.60;99.90
9375;DHT22;4727;51.202;6.344;2022-10-31T04:33:16;13.60;1.00
9375;DHT22;4727;51.202;6.344;2022-10-31T04:35:42;13.90;99.90
9375;DHT22;4727;51.202;6.344;2022-10-31T04:38:08;13.80;99.90
9375;DHT22;4727;51.202;6.344;2022-10-31T04:40:33;14.00;4.50
9375;DHT22;4727;51.202;6.344;2022-10-31T04:42:59;13.80;1.00
9375;DHT22;4727;51.202;6.344;2022-10-31T04:45:24;14.00;1.00
9375;DHT22;4727;51.202;6.344;2022-10-31T04:47:50;14.10;1.00
9375;DHT22;4727;51.202;6.344;2022-10-31T04:50:16;14.00;1.00
9375;DHT22;4727;51.202;6.344;2022-10-31T04:52:43;14.00;99.90
9375;DHT22;4727;51.202;6.344;2022-10-31T04:55:11;14.00;1.00
9375;DHT22;4727;51.202;6.344;2022-10-31T04:57:45;14.00;1.00
9375;DHT22;4727;51.202;6.344;2022-10-31T05:00:12;14.00;1.00
9375;DHT22;4727;51.202;6.344;2022-10-31T05:02:48;14.00;1.00
9375;DHT22;4727;51.202;6.344;2022-10-31T05:05:16;14.00;99.90
9375;DHT22;4727;51.202;6.344;2022-10-31T05:07:43;14.00;99.90
9375;DHT22;4727;51.202;6.344;2022-10-31T05:10:11;14.10;99.90
9375;DHT22;4727;51.202;6.344;2022-10-31T05:12:37;14.00;99.90
9375;DHT22;4727;51.202;6.344;2022-10-31T05:15:04;14.00;99.90
9375;DHT22;4727;51.202;6.344;2022-10-31T05:17:31;14.00;99.90
9375;DHT22;4727;51.202;6.344;2022-10-31T05:19:56;14.00;99.90
9375;DHT22;4727;51.202;6.344;2022-10-31T05:22:22;14.00;99.90
9375;DHT22;4727;51.202;6.344;2022-10-31T05:24:48;14.00;99.90
9375;DHT22;4727;51.202;6.344;2022-10-31T05:27:13;13.90;1.00
9375;DHT22;4727;51.202;6.344;2022-10-31T05:29:39;13.80;99.90
9375;DHT22;4727;51.202;6.344;2022-10-31T05:32:04;13.80;1.00
9375;DHT22;4727;51.202;6.344;2022-10-31T05:34:30;13.80;1.00
9375;DHT22;4727;51.202;6.344;2022-10-31T05:36:55;13.80;1.00
9375;DHT22;4727;51.202;6.344;2022-10-31T05:39:21;13.80;99.90
9375;DHT22;4727;51.202;6.344;2022-10-31T05:41:47;13.80;99.90
9375;DHT22;4727;51.202;6.344;2022-10-31T05:44:12;13.80;99.90
9375;DHT22;4727;51.202;6.344;2022-10-31T05:46:38;13.70;99.90
9375;DHT22;4727;51.202;6.344;2022-10-31T05:49:11;13.70;1.00
9375;DHT22;4727;51.202;6.344;2022-10-31T05:51:36;13.70;1.00
9375;DHT22;4727;51.202;6.344;2022-10-31T05:54:02;13.60;99.90
9375;DHT22;4727;51.202;6.344;2022-10-31T05:56:27;13.70;99.90
9375;DHT22;4727;51.202;6.344;2022-10-31T05:58:53;13.70;99.90
9375;DHT22;4727;51.202;6.344;2022-10-31T06:01:18;13.60;99.90
9375;DHT22;4727;51.202;6.344;2022-10-31T06:03:44;13.50;99.90
9375;DHT22;4727;51.202;6.344;2022-10-31T06:06:09;13.50;99.90
9375;DHT22;4727;51.202;6.344;2022-10-31T06:08:36;13.50;1.00
9375;DHT22;4727;51.202;6.344;2022-10-31T06:11:01;13.50;99.90
9375;DHT22;4727;51.202;6.344;2022-10-31T06:13:27;13.50;99.90
9375;DHT22;4727;51.202;6.344;2022-10-31T06:15:53;13.60;99.90
9375;DHT22;4727;51.202;6.344;2022-10-31T06:18:18;13.50;99.90
9375;DHT22;4727;51.202;6.344;2022-10-31T06:20:44;13.70;99.90
9375;DHT22;4727;51.202;6.344;2022-10-31T06:23:09;13.60;99.90
9375;DHT22;4727;51.202;6.344;2022-10-31T06:25:35;13.60;99.90
9375;DHT22;4727;51.202;6.344;2022-10-31T06:28:01;13.60;99.90
9375;DHT22;4727;51.202;6.344;2022-10-31T06:30:26;13.60;99.90
9375;DHT22;4727;51.202;6.344;2022-10-31T06:32:52;13.60;99.90
9375;DHT22;4727;51.202;6.344;2022-10-31T06:35:18;13.60;99.90
9375;DHT22;4727;51.202;6.344;2022-10-31T06:37:50;13.60;99.90
9375;DHT22;4727;51.202;6.344;2022-10-31T06:40:16;13.60;99.90
9375;DHT22;4727;51.202;6.344;2022-10-31T06:42:42;13.50;99.90
9375;DHT22;4727;51.202;6.344;2022-10-31T06:45:07;13.50;99.90
9375;DHT22;4727;51.202;6.344;2022-10-31T06:47:35;13.50;99.90
9375;DHT22;4727;51.202;6.344;2022-10-31T06:50:01;13.50;99.90
9375;DHT22;4727;51.202;6.344;2022-10-31T06:52:27;13.50;1.00
9375;DHT22;4727;51.202;6.344;2022-10-31T06:54:52;13.50;99.90
9375;DHT22;4727;51.202;6.344;2022-10-31T06:57:18;13.50;1.00
9375;DHT22;4727;51.202;6.344;2022-10-31T06:59:43;13.40;1.00
9375;DHT22;4727;51.202;6.344;2022-10-31T07:02:10;13.40;1.00
9375;DHT22;4727;51.202;6.344;2022-10-31T07:04:36;13.30;1.00
9375;DHT22;4727;51.202;6.344;2022-10-31T07:07:01;13.40;1.00
9375;DHT22;4727;51.202;6.344;2022-10-31T07:09:27;13.50;1.00
9375;DHT22;4727;51.202;6.344;2022-10-31T07:11:53;13.40;1.00
9375;DHT22;4727;51.202;6.344;2022-10-31T07:14:19;13.40;1.00
9375;DHT22;4727;51.202;6.344;2022-10-31T07:16:48;13.40;1.00
9375;DHT22;4727;51.202;6.344;2022-10-31T07:19:15;13.50;1.00
9375;DHT22;4727;51.202;6.344;2022-10-31T07:21:40;13.40;1.00
9375;DHT22;4727;51.202;6.344;2022-10-31T07:24:06;13.40;1.00
9375;DHT22;4727;51.202;6.344;2022-10-31T07:26:31;13.40;50.50
9375;DHT22;4727;51.202;6.344;2022-10-31T07:28:57;13.40;94.80
9375;DHT22;4727;51.202;6.344;2022-10-31T07:31:24;13.50;96.10
9375;DHT22;4727;51.202;6.344;2022-10-31T07:33:50;13.50;99.90
9375;DHT22;4727;51.202;6.344;2022-10-31T07:36:16;13.60;99.90
9375;DHT22;4727;51.202;6.344;2022-10-31T07:38:41;13.50;99.90
9375;DHT22;4727;51.202;6.344;2022-10-31T07:41:07;13.40;99.90
9375;DHT22;4727;51.202;6.344;2022-10-31T07:43:32;13.50;99.90
9375;DHT22;4727;51.202;6.344;2022-10-31T07:45:58;13.60;99.90
9375;DHT22;4727;51.202;6.344;2022-10-31T07:48:23;13.60;99.90
9375;DHT22;4727;51.202;6.344;2022-10-31T07:50:49;13.60;99.90
9375;DHT22;4727;51.202;6.344;2022-10-31T07:53:15;13.50;99.90
9375;DHT22;4727;51.202;6.344;2022-10-31T07:55:42;13.60;99.90
9375;DHT22;4727;51.202;6.344;2022-10-31T07:58:13;13.60;99.90
9375;DHT22;4727;51.202;6.344;2022-10-31T08:00:40;13.60;99.90
9375;DHT22;4727;51.202;6.344;2022-10-31T08:03:10;13.70;99.90
9375;DHT22;4727;51.202;6.344;2022-10-31T08:05:36;13.70;99.90
9375;DHT22;4727;51.202;6.344;2022-10-31T08:08:03;13.70;99.90
9375;DHT22;4727;51.202;6.344;2022-10-31T08:10:29;13.80;99.90
9375;DHT22;4727;51.202;6.344;2022-10-31T08:13:02;13.80;99.90
9375;DHT22;4727;51.202;6.344;2022-10-31T08:15:29;13.70;1.00
9375;DHT22;4727;51.202;6.344;2022-10-31T08:17:54;13.80;1.00
9375;DHT22;4727;51.202;6.344;2022-10-31T08:20:21;13.80;1.00
9375;DHT22;4727;51.202;6.344;2022-10-31T08:22:58;13.90;1.00
9375;DHT22;4727;51.202;6.344;2022-10-31T08:25:24;13.90;1.50
9375;DHT22;4727;51.202;6.344;2022-10-31T08:27:54;13.90;1.00
9375;DHT22;4727;51.202;6.344;2022-10-31T08:30:21;13.90;1.00
9375;DHT22;4727;51.202;6.344;2022-10-31T08:32:47;13.90;1.00
9375;DHT22;4727;51.202;6.344;2022-10-31T08:35:21;14.00;1.00
9375;DHT22;4727;51.202;6.344;2022-10-31T08:37:55;13.90;1.00
9375;DHT22;4727;51.202;6.344;2022-10-31T08:40:21;13.90;1.00
9375;DHT22;4727;51.202;6.344;2022-10-31T08:42:47;14.20;1.00
9375;DHT22;4727;51.202;6.344;2022-10-31T08:45:12;14.10;1.00
9375;DHT22;4727;51.202;6.344;2022-10-31T08:47:38;14.20;1.00
9375;DHT22;4727;51.202;6.344;2022-10-31T08:50:04;14.20;1.00
9375;DHT22;4727;51.202;6.344;2022-10-31T08:52:30;14.20;1.00
9375;DHT22;4727;51.202;6.344;2022-10-31T08:54:55;14.30;1.00
9375;DHT22;4727;51.202;6.344;2022-10-31T08:57:21;14.30;1.00
9375;DHT22;4727;51.202;6.344;2022-10-31T08:59:46;14.40;99.90
9375;DHT22;4727;51.202;6.344;2022-10-31T09:02:12;14.40;99.90
9375;DHT22;4727;51.202;6.344;2022-10-31T09:04:37;14.30;99.90
9375;DHT22;4727;51.202;6.344;2022-10-31T09:07:03;14.40;99.90
9375;DHT22;4727;51.202;6.344;2022-10-31T09:09:28;14.40;99.90
9375;DHT22;4727;51.202;6.344;2022-10-31T09:11:54;14.40;99.90
9375;DHT22;4727;51.202;6.344;2022-10-31T09:14:19;14.40;99.90
9375;DHT22;4727;51.202;6.344;2022-10-31T09:16:45;14.50;99.90
9375;DHT22;4727;51.202;6.344;2022-10-31T09:19:10;14.40;99.90
9375;DHT22;4727;51.202;6.344;2022-10-31T09:21:36;14.40;99.90
9375;DHT22;4727;51.202;6.344;2022-10-31T09:24:02;14.50;99.90
9375;DHT22;4727;51.202;6.344;2022-10-31T09:26:27;14.50;99.90
9375;DHT22;4727;51.202;6.344;2022-10-31T09:28:53;14.50;99.90
9375;DHT22;4727;51.202;6.344;2022-10-31T09:31:18;14.70;46.70
9375;DHT22;4727;51.202;6.344;2022-10-31T09:33:44;14.50;99.90
9375;DHT22;4727;51.202;6.344;2022-10-31T09:36:09;14.70;99.90
9375;DHT22;4727;51.202;6.344;2022-10-31T09:38:35;14.50;99.90
9375;DHT22;4727;51.202;6.344;2022-10-31T09:44:45;14.70;14.10
9375;DHT22;4727;51.202;6.344;2022-10-31T09:50:22;14.80;40.60
9375;DHT22;4727;51.202;6.344;2022-10-31T09:53:22;14.90;1.00
9375;DHT22;4727;51.202;6.344;2022-10-31T09:55:45;14.90;1.00
9375;DHT22;4727;51.202;6.344;2022-10-31T09:58:22;15.00;1.00
9375;DHT22;4727;51.202;6.344;2022-10-31T10:00:49;15.00;1.00
9375;DHT22;4727;51.202;6.344;2022-10-31T10:06:04;15.20;99.90
9375;DHT22;4727;51.202;6.344;2022-10-31T10:08:32;15.20;99.90
9375;DHT22;4727;51.202;6.344;2022-10-31T10:22:12;15.50;1.00
9375;DHT22;4727;51.202;6.344;2022-10-31T10:28:21;15.60;1.00
9375;DHT22;4727;51.202;6.344;2022-10-31T10:30:59;15.60;99.90
9375;DHT22;4727;51.202;6.344;2022-10-31T10:33:33;15.60;1.00
9375;DHT22;4727;51.202;6.344;2022-10-31T10:36:04;15.80;1.00
9375;DHT22;4727;51.202;6.344;2022-10-31T10:41:14;15.90;99.90
9375;DHT22;4727;51.202;6.344;2022-10-31T10:43:41;15.80;99.90
9375;DHT22;4727;51.202;6.344;2022-10-31T10:46:41;15.90;43.80
9375;DHT22;4727;51.202;6.344;2022-10-31T10:49:37;16.00;1.00
9375;DHT22;4727;51.202;6.344;2022-10-31T10:52:29;16.10;1.00
9375;DHT22;4727;51.202;6.344;2022-10-31T11:00:29;16.30;1.00
9375;DHT22;4727;51.202;6.344;2022-10-31T11:02:55;16.40;99.90
9375;DHT22;4727;51.202;6.344;2022-10-31T11:05:51;16.40;99.90
9375;DHT22;4727;51.202;6.344;2022-10-31T11:08:29;16.40;91.90
9375;DHT22;4727;51.202;6.344;2022-10-31T11:13:47;16.50;82.10
9375;DHT22;4727;51.202;6.344;2022-10-31T11:16:30;16.60;99.90
9375;DHT22;4727;51.202;6.344;2022-10-31T11:19:16;16.60;1.00
9375;DHT22;4727;51.202;6.344;2022-10-31T11:21:43;16.60;1.00
9375;DHT22;4727;51.202;6.344;2022-10-31T11:26:37;16.70;1.00
9375;DHT22;4727;51.202;6.344;2022-10-31T11:29:04;16.70;1.00
9375;DHT22;4727;51.202;6.344;2022-10-31T11:31:31;16.80;1.00
9375;DHT22;4727;51.202;6.344;2022-10-31T11:34:03;16.80;1.00
9375;DHT22;4727;51.202;6.344;2022-10-31T11:36:37;16.90;99.90
9375;DHT22;4727;51.202;6.344;2022-10-31T11:39:05;16.90;99.90
9375;DHT22;4727;51.202;6.344;2022-10-31T11:54:50;17.20;99.90
9375;DHT22;4727;51.202;6.344;2022-10-31T11:57:41;17.20;99.90
9375;DHT22;4727;51.202;6.344;2022-10-31T12:00:25;17.40;1.00
9375;DHT22;4727;51.202;6.344;2022-10-31T12:03:04;17.40;1.00
9375;DHT22;4727;51.202;6.344;2022-10-31T12:05:30;17.50;1.00
9375;DHT22;4727;51.202;6.344;2022-10-31T12:07:58;17.50;1.00
9375;DHT22;4727;51.202;6.344;2022-10-31T12:10:49;17.50;1.00
9375;DHT22;4727;51.202;6.344;2022-10-31T12:16:22;17.60;99.90
9375;DHT22;4727;51.202;6.344;2022-10-31T12:22:04;17.70;99.90
9375;DHT22;4727;51.202;6.344;2022-10-31T12:24:58;17.80;99.90
9375;DHT22;4727;51.202;6.344;2022-10-31T12:27:39;17.80;99.90
9375;DHT22;4727;51.202;6.344;2022-10-31T12:30:27;17.80;99.90
9375;DHT22;4727;51.202;6.344;2022-10-31T12:35:50;18.00;99.90
9375;DHT22;4727;51.202;6.344;2022-10-31T12:38:42;18.00;10.10
9375;DHT22;4727;51.202;6.344;2022-10-31T12:44:18;18.10;1.00
9375;DHT22;4727;51.202;6.344;2022-10-31T12:52:35;18.40;1.00
9375;DHT22;4727;51.202;6.344;2022-10-31T12:57:49;18.60;1.00
9375;DHT22;4727;51.202;6.344;2022-10-31T13:00:18;18.60;1.00
9375;DHT22;4727;51.202;6.344;2022-10-31T13:03:14;18.50;99.90
9375;DHT22;4727;51.202;6.344;2022-10-31T13:05:46;18.60;99.90
9375;DHT22;4727;51.202;6.344;2022-10-31T13:08:46;18.50;99.90
9375;DHT22;4727;51.202;6.344;2022-10-31T13:11:28;18.70;99.90
9375;DHT22;4727;51.202;6.344;2022-10-31T13:14:26;18.60;99.90
9375;DHT22;4727;51.202;6.344;2022-10-31T13:16:54;18.60;99.90
9375;DHT22;4727;51.202;6.344;2022-10-31T13:19:37;18.70;99.90
9375;DHT22;4727;51.202;6.344;2022-10-31T13:22:41;18.80;1.00
9375;DHT22;4727;51.202;6.344;2022-10-31T13:25:24;19.00;1.00
9375;DHT22;4727;51.202;6.344;2022-10-31T13:28:20;19.10;1.00
9375;DHT22;4727;51.202;6.344;2022-10-31T13:30:48;19.10;99.90
9375;DHT22;4727;51.202;6.344;2022-10-31T13:33:19;19.30;99.90
9375;DHT22;4727;51.202;6.344;2022-10-31T13:38:53;19.30;99.90
9375;DHT22;4727;51.202;6.344;2022-10-31T13:44:27;19.40;23.60
9375;DHT22;4727;51.202;6.344;2022-10-31T13:46:54;19.60;99.90
9375;DHT22;4727;51.202;6.344;2022-10-31T13:51:52;19.80;1.00
9375;DHT22;4727;51.202;6.344;2022-10-31T13:54:30;19.80;1.00
9375;DHT22;4727;51.202;6.344;2022-10-31T13:56:56;19.80;1.00
9375;DHT22;4727;51.202;6.344;2022-10-31T13:59:24;19.90;1.00
9375;DHT22;4727;51.202;6.344;2022-10-31T14:01:56;20.00;1.00
9375;DHT22;4727;51.202;6.344;2022-10-31T14:04:25;20.00;1.00
9375;DHT22;4727;51.202;6.344;2022-10-31T14:06:56;19.90;1.00
9375;DHT22;4727;51.202;6.344;2022-10-31T14:09:27;19.80;1.00
9375;DHT22;4727;51.202;6.344;2022-10-31T14:11:55;19.70;1.00
9375;DHT22;4727;51.202;6.344;2022-10-31T14:14:23;19.50;18.30
9375;DHT22;4727;51.202;6.344;2022-10-31T14:16:57;19.50;99.90
9375;DHT22;4727;51.202;6.344;2022-10-31T14:19:23;19.40;99.20
9375;DHT22;4727;51.202;6.344;2022-10-31T14:21:50;19.40;99.90
9375;DHT22;4727;51.202;6.344;2022-10-31T14:34:23;19.20;99.90
9375;DHT22;4727;51.202;6.344;2022-10-31T14:52:57;19.00;99.90
9375;DHT22;4727;51.202;6.344;2022-10-31T14:55:26;19.00;99.90
9375;DHT22;4727;51.202;6.344;2022-10-31T15:00:23;19.00;99.90
9375;DHT22;4727;51.202;6.344;2022-10-31T15:03:04;19.00;99.90
9375;DHT22;4727;51.202;6.344;2022-10-31T15:05:32;19.10;99.90
9375;DHT22;4727;51.202;6.344;2022-10-31T15:07:59;19.00;99.90
9375;DHT22;4727;51.202;6.344;2022-10-31T15:10:32;19.00;99.90
9375;DHT22;4727;51.202;6.344;2022-10-31T15:13:18;19.10;99.90
9375;DHT22;4727;51.202;6.344;2022-10-31T15:15:44;19.00;99.90
9375;DHT22;4727;51.202;6.344;2022-10-31T15:18:19;19.00;99.90
9375;DHT22;4727;51.202;6.344;2022-10-31T15:20:46;19.00;99.90
9375;DHT22;4727;51.202;6.344;2022-10-31T15:23:25;19.00;99.90
9375;DHT22;4727;51.202;6.344;2022-10-31T15:26:01;19.00;99.90
9375;DHT22;4727;51.202;6.344;2022-10-31T15:28:27;19.00;99.90
9375;DHT22;4727;51.202;6.344;2022-10-31T15:30:58;18.90;99.90
9375;DHT22;4727;51.202;6.344;2022-10-31T15:33:29;19.10;99.90
9375;DHT22;4727;51.202;6.344;2022-10-31T15:35:56;18.90;99.90
9375;DHT22;4727;51.202;6.344;2022-10-31T15:38:23;18.80;99.90
9375;DHT22;4727;51.202;6.344;2022-10-31T15:41:18;18.80;99.90
9375;DHT22;4727;51.202;6.344;2022-10-31T15:43:45;18.80;99.90
9375;DHT22;4727;51.202;6.344;2022-10-31T15:46:12;18.80;99.90
9375;DHT22;4727;51.202;6.344;2022-10-31T15:48:38;18.70;99.90
9375;DHT22;4727;51.202;6.344;2022-10-31T15:51:05;18.70;1.00
9375;DHT22;4727;51.202;6.344;2022-10-31T15:53:46;18.70;1.00
9375;DHT22;4727;51.202;6.344;2022-10-31T15:56:28;18.70;99.90
9375;DHT22;4727;51.202;6.344;2022-10-31T15:59:11;18.60;99.90
9375;DHT22;4727;51.202;6.344;2022-10-31T16:02:30;18.50;1.00
9375;DHT22;4727;51.202;6.344;2022-10-31T16:05:25;18.50;1.00
9375;DHT22;4727;51.202;6.344;2022-10-31T16:08:50;18.30;1.00
9375;DHT22;4727;51.202;6.344;2022-10-31T16:11:42;18.30;1.00
9375;DHT22;4727;51.202;6.344;2022-10-31T16:14:39;18.30;1.00
9375;DHT22;4727;51.202;6.344;2022-10-31T16:17:05;18.10;1.00
9375;DHT22;4727;51.202;6.344;2022-10-31T16:19:42;18.30;1.00
9375;DHT22;4727;51.202;6.344;2022-10-31T16:22:14;18.20;1.00
9375;DHT22;4727;51.202;6.344;2022-10-31T16:24:45;18.10;1.00
9375;DHT22;4727;51.202;6.344;2022-10-31T16:27:27;18.20;1.00
